createdAt,value
2019-05-10T00:00:38.291Z,986.19
2019-05-10T00:01:38.317Z,986.19
2019-05-10T00:02:38.257Z,986.17
2019-05-10T00:03:38.257Z,986.18
2019-05-10T00:04:38.240Z,986.18
2019-05-10T00:05:38.249Z,986.12
2019-05-10T00:06:38.280Z,986.17
2019-05-10T00:07:38.242Z,986.15
2019-05-10T00:08:38.225Z,986.15
2019-05-10T00:09:38.181Z,986.17
2019-05-10T00:10:38.187Z,986.22
2019-05-10T00:11:38.171Z,986.17
2019-05-10T00:12:38.154Z,986.22
2019-05-10T00:13:38.182Z,986.26
2019-05-10T00:14:38.160Z,986.16
2019-05-10T00:15:38.123Z,986.20
2019-05-10T00:16:38.109Z,986.23
2019-05-10T00:17:38.145Z,986.11
2019-05-10T00:18:38.094Z,986.17
2019-05-10T00:19:38.117Z,986.13
2019-05-10T00:20:38.070Z,986.19
2019-05-10T00:21:38.068Z,986.16
2019-05-10T00:22:38.052Z,986.19
2019-05-10T00:23:38.028Z,986.21
2019-05-10T00:24:38.014Z,986.19
2019-05-10T00:25:38.150Z,986.18
2019-05-10T00:26:38.042Z,986.19
2019-05-10T00:27:37.984Z,986.20
2019-05-10T00:28:37.973Z,986.24
2019-05-10T00:29:37.971Z,986.22
2019-05-10T00:30:37.976Z,986.25
2019-05-10T00:31:38.005Z,986.23
2019-05-10T00:32:37.949Z,986.22
2019-05-10T00:33:37.930Z,986.28
2019-05-10T00:34:37.911Z,986.24
2019-05-10T00:35:37.922Z,986.26
2019-05-10T00:36:37.908Z,986.32
2019-05-10T00:37:37.925Z,986.28
2019-05-10T00:38:37.903Z,986.29
2019-05-10T00:39:37.858Z,986.24
2019-05-10T00:40:37.876Z,986.26
2019-05-10T00:41:37.845Z,986.27
2019-05-10T00:42:37.820Z,986.29
2019-05-10T00:43:37.863Z,986.27
2019-05-10T00:44:37.848Z,986.25
2019-05-10T00:45:37.801Z,986.29
2019-05-10T00:46:37.791Z,986.26
2019-05-10T00:47:37.773Z,986.26
2019-05-10T00:48:37.770Z,986.24
2019-05-10T00:49:37.796Z,986.25
2019-05-10T00:50:37.742Z,986.26
2019-05-10T00:51:37.756Z,986.27
2019-05-10T00:52:37.723Z,986.23
2019-05-10T00:53:37.696Z,986.29
2019-05-10T00:54:37.793Z,986.25
2019-05-10T00:55:37.752Z,986.26
2019-05-10T00:56:37.672Z,986.20
2019-05-10T00:57:37.669Z,986.27
2019-05-10T00:58:37.646Z,986.27
2019-05-10T00:59:37.645Z,986.27
2019-05-10T01:00:37.634Z,986.29
2019-05-10T01:01:37.700Z,986.30
2019-05-10T01:02:37.634Z,986.29
2019-05-10T01:03:37.647Z,986.33
2019-05-10T01:04:37.606Z,986.31
2019-05-10T01:05:37.592Z,986.27
2019-05-10T01:06:37.574Z,986.32
2019-05-10T01:07:37.577Z,986.31
2019-05-10T01:08:37.562Z,986.29
2019-05-10T01:09:37.539Z,986.25
2019-05-10T01:10:37.556Z,986.29
2019-05-10T01:11:37.514Z,986.27
2019-05-10T01:12:37.501Z,986.27
2019-05-10T01:13:37.553Z,986.25
2019-05-10T01:14:37.484Z,986.24
2019-05-10T01:15:37.485Z,986.23
2019-05-10T01:16:37.459Z,986.22
2019-05-10T01:17:37.456Z,986.21
2019-05-10T01:18:37.432Z,986.29
2019-05-10T01:19:37.485Z,986.24
2019-05-10T01:20:37.422Z,986.27
2019-05-10T01:21:37.416Z,986.27
2019-05-10T01:22:37.424Z,986.24
2019-05-10T01:23:37.374Z,986.20
2019-05-10T01:24:37.383Z,986.21
2019-05-10T01:25:37.400Z,986.25
2019-05-10T01:26:37.343Z,986.25
2019-05-10T01:27:37.333Z,986.24
2019-05-10T01:28:37.368Z,986.22
2019-05-10T01:29:37.319Z,986.31
2019-05-10T01:30:37.301Z,986.27
2019-05-10T01:31:37.331Z,986.27
2019-05-10T01:32:37.313Z,986.28
2019-05-10T01:33:37.285Z,986.27
2019-05-10T01:34:37.256Z,986.28
2019-05-10T01:35:37.271Z,986.30
2019-05-10T01:36:37.241Z,986.28
2019-05-10T01:37:37.269Z,986.30
2019-05-10T01:38:37.214Z,986.27
2019-05-10T01:39:37.208Z,986.31
2019-05-10T01:40:37.197Z,986.30
2019-05-10T01:41:37.176Z,986.32
2019-05-10T01:42:37.173Z,986.35
2019-05-10T01:43:37.220Z,986.30
2019-05-10T01:44:37.163Z,986.33
2019-05-10T01:45:37.136Z,986.37
2019-05-10T01:46:37.131Z,986.37
2019-05-10T01:47:37.125Z,986.39
2019-05-10T01:48:37.133Z,986.41
2019-05-10T01:49:37.154Z,986.42
2019-05-10T01:50:37.118Z,986.40
2019-05-10T01:51:37.086Z,986.44
2019-05-10T01:52:37.071Z,986.42
2019-05-10T01:53:37.067Z,986.40
2019-05-10T01:54:37.049Z,986.45
2019-05-10T01:55:50.940Z,986.47
2019-05-10T01:56:38.016Z,986.44
2019-05-10T01:57:37.011Z,986.40
2019-05-10T01:58:37.018Z,986.43
2019-05-10T01:59:36.995Z,986.43
2019-05-10T02:00:36.985Z,986.46
2019-05-10T02:01:37.001Z,986.44
2019-05-10T02:02:36.965Z,986.47
2019-05-10T02:03:36.950Z,986.48
2019-05-10T02:04:36.958Z,986.47
2019-05-10T02:05:36.927Z,986.47
2019-05-10T02:06:36.926Z,986.50
2019-05-10T02:07:36.952Z,986.45
2019-05-10T02:08:36.913Z,986.54
2019-05-10T02:09:36.884Z,986.52
2019-05-10T02:10:36.881Z,986.52
2019-05-10T02:11:36.865Z,986.55
2019-05-10T02:12:36.845Z,986.51
2019-05-10T02:13:36.881Z,986.52
2019-05-10T02:14:36.833Z,986.56
2019-05-10T02:15:36.813Z,986.57
2019-05-10T02:16:36.796Z,986.61
2019-05-10T02:17:36.820Z,986.59
2019-05-10T02:18:36.793Z,986.57
2019-05-10T02:19:36.848Z,986.62
2019-05-10T02:20:36.784Z,986.61
2019-05-10T02:21:36.758Z,986.62
2019-05-10T02:22:36.752Z,986.59
2019-05-10T02:23:36.725Z,986.60
2019-05-10T02:24:36.727Z,986.60
2019-05-10T02:25:36.769Z,986.57
2019-05-10T02:26:36.691Z,986.59
2019-05-10T02:27:36.683Z,986.61
2019-05-10T02:28:36.671Z,986.60
2019-05-10T02:29:36.715Z,986.61
2019-05-10T02:30:36.658Z,986.62
2019-05-10T02:31:36.695Z,986.64
2019-05-10T02:32:36.638Z,986.70
2019-05-10T02:33:36.624Z,986.68
2019-05-10T02:34:36.608Z,986.63
2019-05-10T02:35:36.604Z,986.65
2019-05-10T02:36:36.697Z,986.66
2019-05-10T02:37:36.666Z,986.66
2019-05-10T02:38:36.559Z,986.69
2019-05-10T02:39:36.561Z,986.74
2019-05-10T02:40:36.546Z,986.73
2019-05-10T02:41:36.557Z,986.75
2019-05-10T02:42:36.537Z,986.75
2019-05-10T02:43:36.557Z,986.76
2019-05-10T02:44:36.497Z,986.76
2019-05-10T02:45:36.486Z,986.74
2019-05-10T02:46:36.489Z,986.79
2019-05-10T02:47:36.456Z,986.80
2019-05-10T02:48:36.464Z,986.74
2019-05-10T02:49:36.478Z,986.76
2019-05-10T02:50:36.444Z,986.75
2019-05-10T02:51:36.423Z,986.79
2019-05-10T02:52:36.441Z,986.75
2019-05-10T02:53:36.408Z,986.80
2019-05-10T02:54:36.408Z,986.82
2019-05-10T02:55:36.454Z,986.76
2019-05-10T02:56:36.370Z,986.81
2019-05-10T02:57:36.370Z,986.78
2019-05-10T02:58:36.354Z,986.77
2019-05-10T02:59:36.342Z,986.82
2019-05-10T03:00:36.366Z,986.79
2019-05-10T03:01:36.422Z,986.84
2019-05-10T03:02:36.310Z,986.80
2019-05-10T03:03:36.300Z,986.80
2019-05-10T03:04:36.288Z,986.81
2019-05-10T03:05:36.271Z,986.79
2019-05-10T03:06:36.270Z,986.81
2019-05-10T03:07:36.359Z,986.82
2019-05-10T03:08:36.242Z,986.78
2019-05-10T03:09:36.250Z,986.80
2019-05-10T03:10:36.218Z,986.77
2019-05-10T03:11:36.252Z,986.75
2019-05-10T03:12:36.194Z,986.80
2019-05-10T03:13:36.229Z,986.82
2019-05-10T03:14:36.200Z,986.81
2019-05-10T03:15:36.286Z,986.89
2019-05-10T03:16:36.153Z,986.90
2019-05-10T03:17:36.132Z,986.88
2019-05-10T03:18:36.127Z,986.86
2019-05-10T03:19:36.142Z,986.88
2019-05-10T03:20:36.102Z,986.96
2019-05-10T03:21:36.094Z,986.92
2019-05-10T03:22:36.104Z,986.88
2019-05-10T03:23:36.087Z,986.89
2019-05-10T03:24:36.064Z,986.91
2019-05-10T03:25:36.130Z,986.95
2019-05-10T03:26:50.319Z,986.97
2019-05-10T03:27:37.059Z,986.94
2019-05-10T03:28:36.034Z,986.96
2019-05-10T03:29:36.050Z,986.99
2019-05-10T03:30:35.994Z,987.00
2019-05-10T03:31:36.031Z,987.04
2019-05-10T03:32:35.977Z,987.02
2019-05-10T03:33:36.081Z,987.05
2019-05-10T03:34:35.962Z,987.06
2019-05-10T03:35:35.945Z,987.08
2019-05-10T03:36:35.930Z,987.14
2019-05-10T03:37:35.955Z,987.11
2019-05-10T03:38:35.927Z,987.14
2019-05-10T03:39:35.894Z,987.15
2019-05-10T03:40:35.895Z,987.19
2019-05-10T03:41:35.887Z,987.14
2019-05-10T03:42:35.892Z,987.19
2019-05-10T03:43:35.912Z,987.17
2019-05-10T03:44:35.878Z,987.22
2019-05-10T03:45:35.850Z,987.24
2019-05-10T03:46:35.819Z,987.22
2019-05-10T03:47:35.843Z,987.30
2019-05-10T03:48:35.804Z,987.26
2019-05-10T03:49:35.953Z,987.25
2019-05-10T03:50:35.785Z,987.28
2019-05-10T03:51:35.765Z,987.29
2019-05-10T03:52:35.751Z,987.27
2019-05-10T03:53:35.741Z,987.30
2019-05-10T03:54:35.743Z,987.33
2019-05-10T03:55:35.790Z,987.24
2019-05-10T03:56:35.717Z,987.29
2019-05-10T03:57:35.762Z,987.28
2019-05-10T03:58:35.702Z,987.32
2019-05-10T03:59:35.675Z,987.27
2019-05-10T04:00:35.671Z,987.25
2019-05-10T04:01:35.757Z,987.25
2019-05-10T04:02:35.647Z,987.24
2019-05-10T04:03:35.649Z,987.24
2019-05-10T04:04:35.663Z,987.21
2019-05-10T04:05:35.780Z,987.16
2019-05-10T04:06:35.617Z,987.22
2019-05-10T04:07:35.637Z,987.21
2019-05-10T04:08:35.638Z,987.21
2019-05-10T04:09:35.570Z,987.26
2019-05-10T04:10:35.561Z,987.29
2019-05-10T04:11:35.543Z,987.25
2019-05-10T04:12:35.550Z,987.28
2019-05-10T04:13:35.583Z,987.27
2019-05-10T04:14:35.513Z,987.33
2019-05-10T04:15:35.501Z,987.32
2019-05-10T04:16:35.608Z,987.35
2019-05-10T04:17:35.475Z,987.38
2019-05-10T04:18:35.642Z,987.37
2019-05-10T04:19:35.490Z,987.42
2019-05-10T04:20:35.482Z,987.38
2019-05-10T04:21:35.444Z,987.42
2019-05-10T04:22:35.460Z,987.46
2019-05-10T04:23:35.429Z,987.48
2019-05-10T04:24:36.404Z,987.44
2019-05-10T04:25:35.445Z,987.42
2019-05-10T04:26:35.416Z,987.51
2019-05-10T04:27:35.401Z,987.50
2019-05-10T04:28:35.367Z,987.49
2019-05-10T04:29:35.393Z,987.53
2019-05-10T04:30:35.381Z,987.53
2019-05-10T04:31:35.382Z,987.53
2019-05-10T04:32:35.321Z,987.55
2019-05-10T04:33:35.320Z,987.53
2019-05-10T04:34:35.327Z,987.48
2019-05-10T04:35:35.303Z,987.62
2019-05-10T04:36:35.288Z,987.58
2019-05-10T04:37:35.296Z,987.57
2019-05-10T04:38:35.261Z,987.63
2019-05-10T04:39:35.356Z,987.62
2019-05-10T04:40:35.300Z,987.62
2019-05-10T04:41:35.231Z,987.64
2019-05-10T04:42:35.232Z,987.66
2019-05-10T04:43:35.250Z,987.68
2019-05-10T04:44:35.219Z,987.71
2019-05-10T04:45:35.181Z,987.65
2019-05-10T04:46:35.176Z,987.64
2019-05-10T04:47:35.155Z,987.65
2019-05-10T04:48:35.146Z,987.70
2019-05-10T04:49:35.177Z,987.69
2019-05-10T04:50:35.139Z,987.79
2019-05-10T04:51:35.109Z,987.77
2019-05-10T04:52:35.104Z,987.72
2019-05-10T04:53:35.130Z,987.82
2019-05-10T04:54:35.102Z,987.82
2019-05-10T04:55:35.095Z,987.77
2019-05-10T04:56:35.102Z,987.81
2019-05-10T04:57:49.298Z,987.77
2019-05-10T04:58:36.034Z,987.78
2019-05-10T04:59:35.026Z,987.79
2019-05-10T05:00:35.031Z,987.82
2019-05-10T05:01:35.032Z,987.82
2019-05-10T05:02:34.992Z,987.83
2019-05-10T05:03:35.015Z,987.88
2019-05-10T05:04:34.983Z,987.87
2019-05-10T05:05:34.970Z,987.86
2019-05-10T05:06:34.947Z,987.90
2019-05-10T05:07:34.962Z,987.87
2019-05-10T05:08:34.941Z,987.89
2019-05-10T05:09:34.931Z,987.89
2019-05-10T05:10:34.901Z,987.88
2019-05-10T05:11:34.898Z,987.95
2019-05-10T05:12:34.886Z,987.93
2019-05-10T05:13:35.558Z,987.91
2019-05-10T05:14:34.859Z,987.95
2019-05-10T05:15:34.893Z,987.92
2019-05-10T05:16:34.839Z,987.95
2019-05-10T05:17:35.223Z,987.93
2019-05-10T05:18:34.822Z,987.96
2019-05-10T05:19:34.877Z,987.97
2019-05-10T05:20:34.814Z,987.98
2019-05-10T05:21:34.844Z,988.00
2019-05-10T05:22:34.778Z,988.06
2019-05-10T05:23:34.832Z,988.01
2019-05-10T05:24:34.746Z,988.04
2019-05-10T05:25:35.108Z,987.99
2019-05-10T05:26:35.733Z,988.03
2019-05-10T05:27:34.726Z,988.00
2019-05-10T05:28:34.755Z,988.02
2019-05-10T05:29:34.787Z,988.05
2019-05-10T05:30:38.528Z,988.06
2019-05-10T05:31:34.839Z,988.09
2019-05-10T05:32:38.434Z,988.15
2019-05-10T05:33:35.655Z,988.13
2019-05-10T05:34:34.656Z,988.11
2019-05-10T05:35:34.627Z,988.14
2019-05-10T05:36:34.609Z,988.09
2019-05-10T05:37:34.734Z,988.15
2019-05-10T05:38:34.594Z,988.18
2019-05-10T05:39:34.576Z,988.19
2019-05-10T05:40:34.565Z,988.20
2019-05-10T05:41:47.765Z,988.15
2019-05-10T05:42:35.597Z,988.21
2019-05-10T05:43:34.531Z,988.19
2019-05-10T05:44:34.542Z,988.20
2019-05-10T05:45:35.624Z,988.21
2019-05-10T05:46:34.501Z,988.20
2019-05-10T05:47:37.682Z,988.22
2019-05-10T05:48:40.413Z,988.22
2019-05-10T05:49:35.468Z,988.25
2019-05-10T05:50:34.457Z,988.23
2019-05-10T05:51:34.443Z,988.27
2019-05-10T05:52:34.434Z,988.30
2019-05-10T05:53:35.932Z,988.27
2019-05-10T05:54:35.462Z,988.31
2019-05-10T05:55:34.403Z,988.24
2019-05-10T05:56:34.448Z,988.23
2019-05-10T05:57:34.394Z,988.32
2019-05-10T05:58:38.246Z,988.33
2019-05-10T05:59:35.392Z,988.35
2019-05-10T06:00:37.741Z,988.32
2019-05-10T06:01:35.342Z,988.34
2019-05-10T06:02:34.431Z,988.37
2019-05-10T06:03:34.331Z,988.38
2019-05-10T06:04:34.312Z,988.41
2019-05-10T06:05:37.136Z,988.47
2019-05-10T06:06:34.332Z,988.46
2019-05-10T06:07:37.963Z,988.49
2019-05-10T06:08:35.291Z,988.49
2019-05-10T06:09:37.728Z,988.49
2019-05-10T06:10:35.240Z,988.46
2019-05-10T06:11:35.824Z,988.50
2019-05-10T06:12:34.274Z,988.53
2019-05-10T06:13:34.215Z,988.51
2019-05-10T06:14:34.207Z,988.51
2019-05-10T06:15:34.239Z,988.55
2019-05-10T06:16:34.180Z,988.59
2019-05-10T06:17:34.171Z,988.55
2019-05-10T06:18:34.215Z,988.59
2019-05-10T06:19:34.146Z,988.58
2019-05-10T06:20:38.121Z,988.56
2019-05-10T06:21:35.118Z,988.60
2019-05-10T06:22:38.330Z,988.61
2019-05-10T06:23:35.751Z,988.65
2019-05-10T06:24:34.522Z,988.72
2019-05-10T06:25:42.767Z,988.71
2019-05-10T06:26:35.062Z,988.66
2019-05-10T06:27:35.421Z,988.69
2019-05-10T06:28:57.705Z,988.69
2019-05-10T06:29:35.104Z,988.73
2019-05-10T06:30:34.016Z,988.73
2019-05-10T06:31:34.007Z,988.73
2019-05-10T06:32:34.014Z,988.74
2019-05-10T06:33:33.988Z,988.79
2019-05-10T06:34:38.735Z,988.76
2019-05-10T06:35:35.010Z,988.77
2019-05-10T06:36:33.973Z,988.77
2019-05-10T06:37:34.002Z,988.80
2019-05-10T06:38:34.097Z,988.74
2019-05-10T06:39:34.467Z,988.79
2019-05-10T06:40:41.219Z,988.76
2019-05-10T06:41:34.946Z,988.92
2019-05-10T06:42:34.616Z,988.86
2019-05-10T06:43:33.877Z,988.86
2019-05-10T06:44:33.910Z,988.82
2019-05-10T06:45:33.895Z,988.84
2019-05-10T06:46:33.867Z,988.95
2019-05-10T06:47:33.895Z,988.87
2019-05-10T06:48:33.884Z,988.86
2019-05-10T06:49:33.833Z,988.94
2019-05-10T06:50:33.795Z,988.98
2019-05-10T06:51:33.783Z,988.96
2019-05-10T06:52:33.798Z,988.98
2019-05-10T06:53:33.805Z,988.94
2019-05-10T06:54:33.818Z,988.98
2019-05-10T06:55:33.788Z,989.02
2019-05-10T06:56:33.729Z,989.04
2019-05-10T06:57:33.746Z,989.02
2019-05-10T06:58:36.285Z,989.04
2019-05-10T06:59:33.741Z,989.06
2019-05-10T07:00:38.176Z,989.03
2019-05-10T07:01:38.307Z,989.14
2019-05-10T07:02:34.661Z,989.06
2019-05-10T07:03:33.653Z,989.13
2019-05-10T07:04:37.922Z,989.11
2019-05-10T07:05:34.825Z,989.13
2019-05-10T07:06:33.627Z,989.15
2019-05-10T07:07:43.999Z,989.16
2019-05-10T07:08:43.826Z,989.17
2019-05-10T07:10:00.395Z,989.24
2019-05-10T07:10:34.582Z,989.19
2019-05-10T07:11:33.613Z,989.27
2019-05-10T07:12:33.576Z,989.27
2019-05-10T07:13:33.571Z,989.24
2019-05-10T07:14:33.551Z,989.26
2019-05-10T07:15:35.640Z,989.28
2019-05-10T07:16:34.572Z,989.28
2019-05-10T07:17:41.384Z,989.29
2019-05-10T07:18:34.499Z,989.34
2019-05-10T07:19:34.791Z,989.41
2019-05-10T07:20:34.498Z,989.37
2019-05-10T07:21:33.510Z,989.40
2019-05-10T07:22:33.495Z,989.37
2019-05-10T07:23:33.444Z,989.40
2019-05-10T07:24:33.445Z,989.47
2019-05-10T07:25:37.615Z,989.43
2019-05-10T07:26:34.407Z,989.35
2019-05-10T07:27:36.657Z,989.40
2019-05-10T07:28:33.423Z,989.35
2019-05-10T07:29:41.826Z,989.35
2019-05-10T07:30:34.363Z,989.42
2019-05-10T07:31:33.372Z,989.38
2019-05-10T07:32:33.362Z,989.49
2019-05-10T07:33:37.211Z,989.52
2019-05-10T07:34:34.354Z,989.51
2019-05-10T07:35:36.993Z,989.53
2019-05-10T07:36:34.308Z,989.47
2019-05-10T07:37:33.317Z,989.54
2019-05-10T07:38:33.294Z,989.59
2019-05-10T07:39:33.285Z,989.58
2019-05-10T07:40:33.282Z,989.65
2019-05-10T07:41:33.261Z,989.57
2019-05-10T07:42:33.240Z,989.57
2019-05-10T07:43:33.223Z,989.63
2019-05-10T07:44:33.218Z,989.58
2019-05-10T07:45:33.248Z,989.53
2019-05-10T07:46:33.225Z,989.60
2019-05-10T07:47:33.227Z,989.61
2019-05-10T07:48:33.165Z,989.62
2019-05-10T07:49:33.163Z,989.67
2019-05-10T07:50:33.148Z,989.67
2019-05-10T07:51:33.136Z,989.66
2019-05-10T07:52:36.299Z,989.61
2019-05-10T07:53:34.114Z,989.76
2019-05-10T07:54:37.728Z,989.74
2019-05-10T07:55:34.086Z,989.68
2019-05-10T07:56:33.143Z,989.71
2019-05-10T07:57:33.059Z,989.74
2019-05-10T07:58:38.152Z,989.68
2019-05-10T07:59:49.662Z,989.83
2019-05-10T08:00:37.995Z,989.70
2019-05-10T08:01:34.897Z,989.71
2019-05-10T08:02:33.030Z,989.72
2019-05-10T08:03:35.551Z,989.68
2019-05-10T08:04:34.043Z,989.72
2019-05-10T08:05:32.981Z,989.79
2019-05-10T08:06:40.196Z,989.76
2019-05-10T08:07:33.952Z,989.73
2019-05-10T08:08:32.951Z,989.77
2019-05-10T08:09:37.208Z,989.79
2019-05-10T08:10:33.954Z,989.79
2019-05-10T08:11:32.934Z,989.78
2019-05-10T08:12:35.134Z,989.86
2019-05-10T08:13:33.886Z,989.76
2019-05-10T08:14:32.881Z,989.78
2019-05-10T08:15:34.793Z,989.76
2019-05-10T08:16:32.926Z,989.83
2019-05-10T08:17:35.457Z,989.81
2019-05-10T08:18:33.847Z,989.80
2019-05-10T08:19:37.447Z,989.81
2019-05-10T08:20:46.461Z,989.82
2019-05-10T08:21:32.815Z,989.86
2019-05-10T08:22:41.611Z,989.84
2019-05-10T08:23:33.788Z,989.89
2019-05-10T08:24:35.492Z,989.87
2019-05-10T08:25:36.326Z,989.92
2019-05-10T08:26:33.759Z,990.04
2019-05-10T08:27:32.741Z,989.96
2019-05-10T08:28:36.457Z,989.99
2019-05-10T08:29:33.724Z,990.01
2019-05-10T08:30:33.253Z,990.04
2019-05-10T08:31:40.394Z,990.10
2019-05-10T08:32:34.911Z,990.12
2019-05-10T08:33:32.876Z,990.12
2019-05-10T08:34:35.321Z,990.11
2019-05-10T08:35:35.869Z,990.13
2019-05-10T08:36:37.233Z,990.13
2019-05-10T08:37:37.739Z,990.22
2019-05-10T08:38:32.612Z,990.23
2019-05-10T08:39:43.922Z,990.13
2019-05-10T08:40:37.720Z,990.20
2019-05-10T08:41:32.802Z,990.16
2019-05-10T08:42:43.823Z,990.22
2019-05-10T08:43:39.021Z,990.19
2019-05-10T08:44:33.545Z,990.22
2019-05-10T08:45:32.619Z,990.23
2019-05-10T08:46:40.192Z,990.15
2019-05-10T08:47:33.505Z,990.12
2019-05-10T08:48:33.067Z,990.17
2019-05-10T08:49:44.283Z,990.15
2019-05-10T08:50:48.828Z,990.08
2019-05-10T08:51:34.550Z,990.15
2019-05-10T08:52:34.005Z,990.10
2019-05-10T08:53:32.955Z,990.11
2019-05-10T08:54:32.922Z,990.11
2019-05-10T08:55:32.415Z,990.16
2019-05-10T08:56:33.340Z,990.14
2019-05-10T08:57:34.798Z,990.14
2019-05-10T08:58:37.136Z,990.11
2019-05-10T08:59:33.977Z,990.16
2019-05-10T09:00:48.978Z,990.17
2019-05-10T09:01:44.781Z,990.19
2019-05-10T09:02:33.374Z,990.20
2019-05-10T09:03:32.382Z,990.24
2019-05-10T09:04:42.268Z,990.25
2019-05-10T09:05:34.043Z,990.27
2019-05-10T09:06:32.833Z,990.27
2019-05-10T09:07:34.981Z,990.29
2019-05-10T09:08:34.705Z,990.36
2019-05-10T09:09:33.892Z,990.34
2019-05-10T09:10:33.266Z,990.30
2019-05-10T09:11:32.784Z,990.30
2019-05-10T09:12:32.947Z,990.33
2019-05-10T09:13:37.078Z,990.38
2019-05-10T09:14:33.240Z,990.41
2019-05-10T09:15:33.093Z,990.47
2019-05-10T09:16:39.208Z,990.41
2019-05-10T09:17:33.172Z,990.37
2019-05-10T09:18:33.159Z,990.47
2019-05-10T09:19:37.465Z,990.41
2019-05-10T09:20:33.204Z,990.42
2019-05-10T09:21:32.312Z,990.38
2019-05-10T09:22:38.242Z,990.48
2019-05-10T09:23:33.107Z,990.40
2019-05-10T09:24:35.002Z,990.43
2019-05-10T09:25:33.827Z,990.48
2019-05-10T09:26:32.315Z,990.50
2019-05-10T09:27:33.393Z,990.53
2019-05-10T09:28:32.294Z,990.60
2019-05-10T09:29:37.102Z,990.59
2019-05-10T09:30:35.510Z,990.65
2019-05-10T09:31:32.665Z,990.60
2019-05-10T09:32:33.407Z,990.60
2019-05-10T09:33:32.090Z,990.62
2019-05-10T09:34:32.410Z,990.64
2019-05-10T09:35:32.971Z,990.60
2019-05-10T09:36:36.018Z,990.63
2019-05-10T09:37:32.130Z,990.67
2019-05-10T09:38:37.166Z,990.61
2019-05-10T09:39:32.935Z,990.70
2019-05-10T09:40:32.780Z,990.65
2019-05-10T09:41:33.719Z,990.72
2019-05-10T09:42:39.765Z,990.69
2019-05-10T09:43:32.977Z,990.67
2019-05-10T09:44:32.951Z,990.65
2019-05-10T09:45:32.415Z,990.71
2019-05-10T09:46:32.468Z,990.73
2019-05-10T09:47:33.032Z,990.76
2019-05-10T09:48:33.296Z,990.69
2019-05-10T09:49:33.266Z,990.72
2019-05-10T09:50:41.040Z,990.74
2019-05-10T09:51:33.303Z,990.81
2019-05-10T09:52:31.798Z,990.68
2019-05-10T09:53:31.794Z,990.75
2019-05-10T09:54:33.581Z,990.75
2019-05-10T09:55:31.802Z,990.80
2019-05-10T09:56:32.775Z,990.69
2019-05-10T09:57:32.739Z,990.69
2019-05-10T09:58:31.728Z,990.77
2019-05-10T09:59:31.717Z,990.80
2019-05-10T10:00:31.728Z,990.80
2019-05-10T10:01:31.716Z,990.77
2019-05-10T10:02:33.922Z,990.77
2019-05-10T10:03:42.338Z,990.74
2019-05-10T10:04:32.662Z,990.81
2019-05-10T10:05:31.646Z,990.71
2019-05-10T10:06:31.644Z,990.79
2019-05-10T10:07:33.449Z,990.82
2019-05-10T10:08:31.621Z,990.88
2019-05-10T10:09:37.345Z,990.88
2019-05-10T10:10:32.704Z,990.87
2019-05-10T10:11:31.605Z,990.88
2019-05-10T10:12:31.572Z,990.90
2019-05-10T10:13:42.641Z,990.85
2019-05-10T10:14:37.755Z,990.85
2019-05-10T10:15:34.275Z,990.86
2019-05-10T10:16:31.542Z,990.81
2019-05-10T10:17:40.264Z,990.83
2019-05-10T10:18:32.549Z,990.82
2019-05-10T10:19:31.505Z,990.81
2019-05-10T10:20:36.097Z,990.87
2019-05-10T10:21:35.525Z,990.82
2019-05-10T10:22:32.482Z,990.82
2019-05-10T10:23:34.916Z,990.87
2019-05-10T10:24:32.519Z,990.86
2019-05-10T10:25:35.205Z,990.96
2019-05-10T10:26:32.462Z,990.90
2019-05-10T10:27:34.614Z,990.84
2019-05-10T10:28:31.401Z,990.90
2019-05-10T10:29:34.015Z,990.86
2019-05-10T10:30:31.699Z,990.80
2019-05-10T10:31:33.560Z,990.83
2019-05-10T10:32:34.807Z,990.82
2019-05-10T10:33:31.356Z,990.78
2019-05-10T10:34:32.618Z,990.85
2019-05-10T10:35:32.360Z,990.89
2019-05-10T10:36:31.339Z,990.80
2019-05-10T10:37:31.499Z,990.82
2019-05-10T10:38:31.507Z,990.77
2019-05-10T10:39:31.292Z,990.77
2019-05-10T10:40:35.376Z,990.78
2019-05-10T10:41:32.364Z,990.86
2019-05-10T10:42:31.263Z,990.85
2019-05-10T10:43:31.235Z,990.88
2019-05-10T10:44:31.232Z,990.90
2019-05-10T10:45:31.234Z,990.83
2019-05-10T10:46:34.430Z,990.81
2019-05-10T10:47:32.361Z,990.72
2019-05-10T10:48:31.204Z,990.77
2019-05-10T10:49:32.111Z,990.84
2019-05-10T10:50:31.159Z,990.75
2019-05-10T10:51:32.335Z,990.78
2019-05-10T10:52:31.134Z,990.77
2019-05-10T10:53:31.160Z,990.71
2019-05-10T10:54:36.511Z,990.69
2019-05-10T10:55:36.599Z,990.67
2019-05-10T10:56:32.117Z,990.70
2019-05-10T10:57:31.078Z,990.68
2019-05-10T10:58:31.069Z,990.68
2019-05-10T10:59:31.111Z,990.75
2019-05-10T11:00:31.110Z,990.76
2019-05-10T11:01:46.211Z,990.76
2019-05-10T11:02:33.892Z,990.81
2019-05-10T11:03:32.568Z,990.85
2019-05-10T11:04:31.022Z,990.78
2019-05-10T11:05:31.196Z,990.84
2019-05-10T11:06:30.994Z,990.74
2019-05-10T11:07:33.798Z,990.59
2019-05-10T11:08:33.247Z,990.66
2019-05-10T11:09:31.190Z,990.69
2019-05-10T11:10:31.328Z,990.66
2019-05-10T11:11:38.783Z,990.69
2019-05-10T11:12:31.927Z,990.78
2019-05-10T11:13:43.959Z,990.91
2019-05-10T11:14:39.762Z,990.79
2019-05-10T11:15:35.976Z,990.76
2019-05-10T11:16:30.883Z,990.81
2019-05-10T11:17:30.900Z,990.58
2019-05-10T11:18:31.775Z,990.67
2019-05-10T11:19:31.710Z,990.61
2019-05-10T11:20:31.769Z,990.57
2019-05-10T11:21:33.254Z,990.56
2019-05-10T11:22:31.807Z,990.61
2019-05-10T11:23:37.551Z,990.61
2019-05-10T11:24:31.781Z,990.63
2019-05-10T11:25:30.793Z,990.63
2019-05-10T11:26:34.961Z,990.60
2019-05-10T11:27:31.001Z,990.76
2019-05-10T11:28:38.937Z,990.71
2019-05-10T11:29:31.758Z,990.59
2019-05-10T11:30:32.475Z,990.52
2019-05-10T11:31:31.297Z,990.57
2019-05-10T11:32:31.463Z,990.53
2019-05-10T11:33:33.544Z,990.63
2019-05-10T11:34:37.475Z,990.63
2019-05-10T11:35:34.479Z,990.62
2019-05-10T11:36:31.318Z,990.63
2019-05-10T11:37:35.676Z,990.64
2019-05-10T11:38:31.916Z,990.72
2019-05-10T11:39:33.152Z,990.68
2019-05-10T11:40:34.898Z,990.60
2019-05-10T11:41:31.463Z,990.63
2019-05-10T11:42:31.063Z,990.67
2019-05-10T11:43:31.374Z,990.84
2019-05-10T11:44:31.717Z,990.59
2019-05-10T11:45:32.231Z,990.58
2019-05-10T11:46:31.131Z,990.58
2019-05-10T11:47:31.228Z,990.62
2019-05-10T11:48:36.758Z,990.62
2019-05-10T11:49:31.513Z,990.70
2019-05-10T11:50:34.885Z,990.68
2019-05-10T11:51:31.539Z,990.70
2019-05-10T11:52:34.879Z,990.84
2019-05-10T11:53:31.668Z,990.65
2019-05-10T11:54:31.895Z,990.67
2019-05-10T11:55:30.957Z,990.64
2019-05-10T11:56:32.315Z,990.67
2019-05-10T11:57:32.914Z,990.69
2019-05-10T11:58:31.149Z,990.71
2019-05-10T11:59:33.949Z,990.95
2019-05-10T12:00:34.218Z,991.07
2019-05-10T12:01:30.380Z,991.00
2019-05-10T12:03:31.914Z,991.06
2019-05-10T12:04:38.200Z,990.89
2019-05-10T12:05:31.966Z,991.09
2019-05-10T12:06:32.022Z,991.01
2019-05-10T12:07:35.140Z,990.82
2019-05-10T12:08:31.301Z,991.06
2019-05-10T12:09:31.611Z,990.78
2019-05-10T12:10:31.986Z,990.74
2019-05-10T12:11:33.803Z,990.76
2019-05-10T12:12:50.158Z,990.88
2019-05-10T12:13:32.725Z,990.78
2019-05-10T12:14:30.295Z,990.83
2019-05-10T12:15:31.811Z,990.85
2019-05-10T12:16:33.440Z,990.86
2019-05-10T12:17:30.319Z,990.90
2019-05-10T12:18:32.482Z,990.95
2019-05-10T12:19:36.864Z,990.89
2019-05-10T12:21:33.150Z,991.02
2019-05-10T12:23:31.785Z,990.91
2019-05-10T12:24:45.217Z,990.93
2019-05-10T12:25:46.230Z,990.91
2019-05-10T12:26:16.486Z,990.91
2019-05-10T12:26:16.516Z,991.09
2019-05-10T12:26:31.416Z,990.91
2019-05-10T12:27:43.987Z,990.99
2019-05-10T12:28:35.295Z,991.03
2019-05-10T12:29:31.709Z,990.99